Tropical Cyclones
[Index]
Main Index Home Page Stock Weather Photos Extreme Storms Discussion Storm News and Storm Chasing Reports Tropical Cyclones / Hurricanes / Typhoons Weather Data and Links Wild Fires / Bushfires Weather Observation Techniques Weather Picture Catalogue Tornado Pictures and Reports Stock Video Footage and DVDs for sale
Season 2009-2010 Tropical Cyclone DAVID Track Map
Season 2009-2010 Summaries (Operational Data): [AU] [SIO] [SPAC] [SH]
<<- Previous TC | 2009-2010 Season | Next TC ->>

click for intensity scale information  Lat/long Grid: Show Hide

 Date Labels: Show Hide

Operational Tropical Cyclone Data : JTWC Advisories

Name: DAVID
Number: 1005

13 Dec 2009 06:00 UTC to 27 Dec 2009 00:00 UTC

    date/time    lat    long     hPa   cat  kts
2009-12-13 06   10.0    84.1    1002         25          
2009-12-13 12   11.1    83.2    1002         25          
2009-12-13 18   11.4    82.7                             
2009-12-14 06   12.8    81.5    1005         20          
2009-12-14 12   13.2    80.0    1000                     
2009-12-14 18   14.4    79.1    1000         26          
2009-12-15 00   14.5    78.1    1000         26          
2009-12-15 06   15.0    77.5    1000         26          
2009-12-15 12   15.2    77.0    1000         26          
2009-12-15 18   15.3    76.2    1000         26          
2009-12-16 00   15.0    75.5    1000         26          
2009-12-16 06   14.9    74.8    1000         26          
2009-12-16 12   14.6    74.1    1000         26          
2009-12-16 18   14.5    73.3    1004         22          
2009-12-17 00   14.5    72.6    1004         22          
2009-12-17 06   13.8    71.9    1004         22          
2009-12-17 12   13.0    71.0    1004         22          
2009-12-17 18   12.9    70.1    1004         22          
2009-12-18 00   12.3    69.1    1004         22          
2009-12-18 06   12.1    68.0    1004         22          
2009-12-18 12   11.9    67.5    1004         22          
2009-12-18 18   11.6    66.7    1004         22          
2009-12-19 00   11.6    66.0    1004         22          
2009-12-19 06   11.8    65.3    1004         22          
2009-12-19 12   11.8    64.4    1004         22          
2009-12-19 18   11.3    63.8    1000         26          
2009-12-20 00   11.1    63.3    1000         26          
2009-12-20 06   11.1    62.4    1002         25          
2009-12-20 12   11.0    62.0    1002         25          
2009-12-20 18   10.7    61.9    1000         25          
2009-12-21 00   10.6    61.8    1000         25          
2009-12-21 06   10.6    62.3     998         30          
2009-12-21 12   10.8    62.9     995    1    35          
2009-12-21 18   11.1    63.6     995    1    35          
2009-12-22 00   11.3    64.0     990    1    40          
2009-12-22 06   11.5    64.6     988    1    45          
2009-12-22 12   12.0    66.2     987    1    45          
2009-12-22 18   13.0    66.9     985    2    50          
2009-12-23 00   13.3    67.7     980    2    55          
2009-12-23 06   13.3    68.3     980    2    55          
2009-12-23 12   13.5    68.5     987    2    50          
2009-12-23 18   14.2    68.8     989    1    45          
2009-12-24 00   14.4    69.6     989    1    45          
2009-12-24 06   14.5    70.3     987    2    50          
2009-12-24 12   14.7    70.9     987    2    50          
2009-12-24 18   14.8    71.3     987    2    50          
2009-12-25 00   14.2    70.4     994    1    40          
2009-12-25 06   13.6    70.8     995    1    35          
2009-12-25 12   13.7    71.4     998         30          
2009-12-25 18   14.3    71.5    1000         25          
2009-12-26 00   14.6    71.3    1000         25          
2009-12-26 06   14.9    70.7    1002         25          
2009-12-26 12   13.8    70.0    1003         20          
2009-12-26 18   13.9    69.7    1004                     
2009-12-27 00   14.0    68.9    1007                     
Winds are 10-min average.

Tropical cyclone tracks developed by Michael Bath using operational warnings and advisories and Google Maps.


[Australian Severe Weather index] [Copyright Notice] [Email Contacts] [Search This Site] [Privacy Policy]
Document: tropical_cyclone_david.htm Updated: 28 May 2013